Time;durP1;ratioP1;P1;durP2;ratioP2;P2;SDS_P1;SDS_P2;PMS_P1;PMS_P2;Temp;Humidity;BMP_temperature;BMP_pressure;BME280_temperature;BME280_humidity;BME280_pressure;Samples;Min_cycle;Max_cycle;Signal;HPM_P1;HPM_P2
2022/11/04 00:00:11;;;;;;;9.18;8.27;;;11.60;99.90;;;;;;4918908;29;20044;-88
2022/11/04 00:02:40;;;;;;;8.63;7.78;;;11.60;99.90;;;;;;4928284;29;20242;-88
2022/11/04 00:05:06;;;;;;;6.80;6.20;;;11.60;99.90;;;;;;4901140;29;20048;-88
2022/11/04 00:10:19;;;;;;;6.55;5.10;;;11.60;99.90;;;;;;4909464;29;20130;-88
2022/11/04 00:13:01;;;;;;;6.40;4.68;;;11.50;99.90;;;;;;4910395;29;20441;-88
2022/11/04 00:18:11;;;;;;;3.92;3.60;;;11.70;99.90;;;;;;4912131;29;20072;-88
2022/11/04 00:28:55;;;;;;;4.20;2.45;;;11.30;99.90;;;;;;4912616;29;20048;-88
2022/11/04 00:34:04;;;;;;;3.25;1.50;;;11.30;99.90;;;;;;4910943;29;20522;-88
2022/11/04 00:36:30;;;;;;;3.03;0.93;;;11.70;99.90;;;;;;4896906;29;20051;-88
2022/11/04 00:39:02;;;;;;;2.28;0.75;;;11.50;99.90;;;;;;4911832;29;20044;-88
2022/11/04 00:41:29;;;;;;;1.65;0.93;;;11.70;99.90;;;;;;4913685;29;20075;-88
2022/11/04 00:44:03;;;;;;;4.63;0.80;;;11.10;99.90;;;;;;4910200;29;20067;-88
2022/11/04 00:46:31;;;;;;;1.48;0.60;;;11.10;99.90;;;;;;4911801;29;20491;-88
2022/11/04 00:48:57;;;;;;;2.53;0.50;;;11.40;99.90;;;;;;4911816;29;20067;-88
2022/11/04 00:51:24;;;;;;;1.13;0.52;;;11.20;99.90;;;;;;4914476;29;20218;-88
2022/11/04 00:53:53;;;;;;;2.47;0.35;;;11.00;99.90;;;;;;4896680;29;20167;-88
2022/11/04 00:56:19;;;;;;;2.85;0.38;;;11.50;99.90;;;;;;4907064;29;20103;-88
2022/11/04 00:58:45;;;;;;;1.38;0.40;;;11.00;99.90;;;;;;4909888;29;20035;-89
2022/11/04 01:01:17;;;;;;;1.35;0.10;;;11.00;99.90;;;;;;4930014;29;20451;-88
2022/11/04 01:03:43;;;;;;;1.55;0.15;;;11.00;99.90;;;;;;4934363;29;20031;-88
2022/11/04 01:06:11;;;;;;;0.57;0.10;;;10.90;99.90;;;;;;4914860;29;20055;-88
2022/11/04 01:08:37;;;;;;;1.20;0.20;;;11.00;99.90;;;;;;4899842;29;20090;-89
2022/11/04 01:11:07;;;;;;;0.10;0.10;;;10.90;99.90;;;;;;4918228;29;20067;-88
2022/11/04 01:13:33;;;;;;;0.30;0.10;;;10.90;99.90;;;;;;4897208;29;20482;-88
2022/11/04 01:16:05;;;;;;;1.10;0.10;;;10.80;99.90;;;;;;4896922;29;20094;-88
2022/11/04 01:18:35;;;;;;;0.88;0.17;;;10.80;99.90;;;;;;4933211;29;20039;-88
2022/11/04 01:21:03;;;;;;;2.10;0.25;;;10.80;99.90;;;;;;4901492;29;20040;-89
2022/11/04 01:23:28;;;;;;;3.00;0.20;;;10.80;99.90;;;;;;4897891;29;20119;-88
2022/11/04 01:25:54;;;;;;;1.65;0.20;;;11.10;99.90;;;;;;4894629;29;20407;-89
2022/11/04 01:28:20;;;;;;;2.80;0.20;;;10.70;99.90;;;;;;4898168;29;20509;-88
2022/11/04 01:30:46;;;;;;;2.28;1.10;;;10.80;99.90;;;;;;4916194;29;20043;-89
2022/11/04 01:33:11;;;;;;;1.35;0.20;;;10.80;99.90;;;;;;4898017;29;20407;-88
2022/11/04 01:35:37;;;;;;;0.88;0.20;;;10.70;99.90;;;;;;4916318;29;20048;-88
2022/11/04 01:38:03;;;;;;;1.10;0.22;;;10.80;99.90;;;;;;4914635;29;20044;-88
2022/11/04 01:40:43;;;;;;;1.63;0.20;;;10.80;99.90;;;;;;4921708;29;20040;-88
2022/11/04 01:43:16;;;;;;;1.08;0.20;;;10.80;99.90;;;;;;4902816;29;20079;-88
2022/11/04 01:45:53;;;;;;;1.73;0.40;;;10.90;99.90;;;;;;4919023;29;20126;-87
2022/11/04 01:48:25;;;;;;;2.70;0.20;;;10.80;99.90;;;;;;4917225;29;20048;-88
2022/11/04 01:50:52;;;;;;;2.97;0.20;;;10.80;99.90;;;;;;4933760;29;20518;-88
2022/11/04 01:53:40;;;;;;;1.75;0.28;;;10.80;99.90;;;;;;4901555;29;20039;-88
2022/11/04 01:56:11;;;;;;;1.38;0.20;;;11.50;99.90;;;;;;4914859;29;20039;-88
2022/11/04 01:58:41;;;;;;;3.45;0.22;;;10.40;99.90;;;;;;4918095;29;20051;-88
2022/11/04 02:01:08;;;;;;;1.92;0.17;;;10.80;99.90;;;;;;4915060;29;20052;-88
2022/11/04 02:03:39;;;;;;;0.98;0.10;;;10.90;99.90;;;;;;4917940;29;20046;-88
2022/11/04 02:06:06;;;;;;;3.03;0.20;;;11.50;99.90;;;;;;4935204;28;20043;-88
2022/11/04 02:08:37;;;;;;;3.20;0.10;;;10.90;99.90;;;;;;4898921;29;20040;-88
2022/11/04 02:11:05;;;;;;;3.17;0.15;;;10.90;99.90;;;;;;4902891;29;20071;-89
2022/11/04 02:13:34;;;;;;;1.60;0.20;;;11.40;99.90;;;;;;4901003;29;20036;-89
2022/11/04 02:16:08;;;;;;;2.58;0.75;;;10.90;99.90;;;;;;4914367;29;20131;-88
2022/11/04 02:18:36;;;;;;;2.05;0.40;;;10.90;99.90;;;;;;4929883;29;20080;-88
2022/11/04 02:21:29;;;;;;;1.75;0.20;;;10.70;99.90;;;;;;4902382;29;20055;-88
2022/11/04 02:24:14;;;;;;;3.58;0.30;;;10.80;99.90;;;;;;4914360;29;20058;-88
2022/11/04 02:27:00;;;;;;;2.20;0.40;;;10.80;99.90;;;;;;4914954;29;20046;-89
2022/11/04 02:29:58;;;;;;;1.13;0.10;;;10.70;99.90;;;;;;4916306;29;20050;-88
2022/11/04 02:32:33;;;;;;;1.13;0.00;;;10.80;99.90;;;;;;4899160;29;20123;-88
2022/11/04 02:35:17;;;;;;;3.03;0.15;;;10.80;99.90;;;;;;4898082;29;20071;-88
2022/11/04 02:37:53;;;;;;;2.08;0.30;;;10.80;99.90;;;;;;4917786;29;20098;-88
2022/11/04 02:40:40;;;;;;;1.92;0.10;;;10.80;99.90;;;;;;4900595;29;20040;-88
2022/11/04 02:43:17;;;;;;;1.25;0.10;;;10.80;99.90;;;;;;4910412;29;20055;-88
2022/11/04 02:45:46;;;;;;;0.75;0.10;;;10.70;99.90;;;;;;4914315;29;20047;-88
2022/11/04 02:48:51;;;;;;;3.47;0.10;;;10.70;99.90;;;;;;4908279;29;20044;-88
2022/11/04 02:51:19;;;;;;;1.27;0.05;;;10.70;99.90;;;;;;4914905;29;20520;-88
2022/11/04 02:53:51;;;;;;;1.83;0.30;;;10.70;99.90;;;;;;4898775;29;20039;-88
2022/11/04 02:56:22;;;;;;;3.00;0.57;;;10.60;99.90;;;;;;4905301;29;20043;-88
2022/11/04 02:58:53;;;;;;;4.40;0.35;;;10.70;99.90;;;;;;4916299;29;20071;-88
2022/11/04 03:01:22;;;;;;;3.95;0.30;;;10.70;99.90;;;;;;4895107;29;20059;-88
2022/11/04 03:03:54;;;;;;;4.28;0.95;;;10.70;99.90;;;;;;4912981;29;20067;-88
2022/11/04 03:06:23;;;;;;;2.83;0.30;;;10.70;99.90;;;;;;4913657;29;20372;-88
2022/11/04 03:08:53;;;;;;;3.20;0.30;;;11.80;99.90;;;;;;4911633;29;20032;-88
2022/11/04 03:11:26;;;;;;;1.65;0.43;;;10.80;99.90;;;;;;4898481;29;20070;-88
2022/11/04 03:14:13;;;;;;;2.05;0.30;;;10.80;99.90;;;;;;4905071;29;20032;-88
2022/11/04 03:16:44;;;;;;;3.20;0.47;;;10.80;99.90;;;;;;4901811;29;20075;-88
2022/11/04 03:19:28;;;;;;;2.97;0.40;;;10.90;99.90;;;;;;4922294;29;20086;-88
2022/11/04 03:22:06;;;;;;;2.47;0.40;;;11.10;99.90;;;;;;4917708;29;20054;-88
2022/11/04 03:24:34;;;;;;;4.07;0.30;;;11.50;99.90;;;;;;4891166;29;20123;-87
2022/11/04 03:27:02;;;;;;;4.13;0.50;;;11.70;99.90;;;;;;4932586;29;20035;-88
2022/11/04 03:29:38;;;;;;;1.80;0.40;;;11.20;99.90;;;;;;4933801;29;20486;-87
2022/11/04 03:32:15;;;;;;;2.25;0.60;;;11.50;99.90;;;;;;4915355;29;20038;-88
2022/11/04 03:34:41;;;;;;;7.28;0.85;;;10.80;99.90;;;;;;4913667;29;20064;-88
2022/11/04 03:37:07;;;;;;;5.38;0.60;;;10.80;99.90;;;;;;4900172;29;20107;-88
2022/11/04 03:39:33;;;;;;;5.68;0.47;;;10.80;99.90;;;;;;4890964;29;20122;-88
2022/11/04 03:42:18;;;;;;;2.40;0.20;;;10.80;99.90;;;;;;4927564;29;20465;-89
2022/11/04 03:44:53;;;;;;;3.13;0.20;;;10.70;99.90;;;;;;4919573;29;20039;-89
2022/11/04 03:47:23;;;;;;;0.98;0.10;;;10.90;99.90;;;;;;4911529;29;20040;-89
2022/11/04 03:50:12;;;;;;;3.20;0.10;;;10.80;99.90;;;;;;4912313;29;20048;-88
2022/11/04 03:52:38;;;;;;;0.47;0.10;;;10.50;99.90;;;;;;4914281;29;20402;-88
2022/11/04 03:55:07;;;;;;;1.20;0.15;;;10.40;99.90;;;;;;4897833;29;20661;-87
2022/11/04 03:57:54;;;;;;;1.20;0.10;;;10.40;99.90;;;;;;4911920;29;20071;-87
2022/11/04 04:00:32;;;;;;;0.45;0.20;;;10.40;99.90;;;;;;4899810;29;20058;-88
2022/11/04 04:03:05;;;;;;;2.67;0.10;;;10.40;99.90;;;;;;4932379;29;20035;-88
2022/11/04 04:05:37;;;;;;;8.48;0.38;;;10.70;99.90;;;;;;4902726;29;20047;-88
2022/11/04 04:08:25;;;;;;;2.15;0.10;;;10.50;99.90;;;;;;4898243;29;20036;-87
2022/11/04 04:11:12;;;;;;;0.52;0.08;;;10.40;99.90;;;;;;4910168;29;20068;-88
2022/11/04 04:13:59;;;;;;;0.47;0.10;;;10.40;99.90;;;;;;4911753;29;20075;-88
2022/11/04 04:16:43;;;;;;;0.88;0.10;;;10.40;99.90;;;;;;4909450;29;20171;-87
2022/11/04 04:19:17;;;;;;;2.45;0.40;;;10.40;99.90;;;;;;4918769;29;20043;-87
2022/11/04 04:22:23;;;;;;;0.98;0.10;;;10.50;99.90;;;;;;4898273;29;20043;-87
2022/11/04 04:27:41;;;;;;;2.17;0.17;;;10.70;99.90;;;;;;4910013;29;20044;-88
2022/11/04 04:30:13;;;;;;;0.40;0.00;;;10.50;99.90;;;;;;4898629;29;20043;-88
2022/11/04 04:32:58;;;;;;;0.35;0.10;;;10.50;99.90;;;;;;4912799;29;20086;-88
2022/11/04 04:35:46;;;;;;;1.80;0.10;;;10.40;99.90;;;;;;4912028;29;20044;-87
2022/11/04 04:46:44;;;;;;;0.95;0.20;;;10.40;99.90;;;;;;4928671;29;20009;-88
2022/11/04 04:49:09;;;;;;;0.75;0.17;;;10.40;99.90;;;;;;4916527;29;20838;-88
2022/11/04 04:51:41;;;;;;;2.45;0.20;;;10.40;99.90;;;;;;4916433;29;20047;-87
2022/11/04 04:54:06;;;;;;;0.90;0.10;;;11.50;99.90;;;;;;4913109;29;20043;-88
2022/11/04 04:56:32;;;;;;;3.33;0.10;;;10.40;99.90;;;;;;4914910;29;20035;-89
2022/11/04 04:59:01;;;;;;;0.52;0.20;;;11.10;99.90;;;;;;4916265;29;20044;-89
2022/11/04 05:01:27;;;;;;;1.02;0.10;;;10.50;99.90;;;;;;4930520;29;20087;-88
2022/11/04 05:03:52;;;;;;;2.60;0.10;;;10.70;99.90;;;;;;4895743;29;20522;-88
2022/11/04 05:06:18;;;;;;;0.70;0.20;;;10.40;99.90;;;;;;4902038;29;20047;-88
2022/11/04 05:08:44;;;;;;;0.43;0.20;;;10.40;99.90;;;;;;4911272;29;20504;-89
2022/11/04 05:11:09;;;;;;;1.42;0.55;;;10.40;99.90;;;;;;4894364;29;20123;-87
2022/11/04 05:13:35;;;;;;;1.63;0.20;;;10.40;99.90;;;;;;4904143;29;20040;-87
2022/11/04 05:16:09;;;;;;;9.45;0.47;;;10.40;99.90;;;;;;4914575;29;20031;-87
2022/11/04 05:18:35;;;;;;;1.75;0.20;;;10.50;99.90;;;;;;4896276;29;20063;-87
2022/11/04 05:21:06;;;;;;;2.55;0.10;;;10.40;99.90;;;;;;4924760;29;20781;-87
2022/11/04 05:23:33;;;;;;;2.28;0.20;;;10.40;99.90;;;;;;4892967;29;20133;-86
2022/11/04 05:25:59;;;;;;;1.98;0.30;;;10.40;99.90;;;;;;4910499;29;20038;-87
2022/11/04 05:28:25;;;;;;;0.98;0.10;;;10.40;99.90;;;;;;4911475;29;20109;-87
2022/11/04 05:30:55;;;;;;;1.65;0.10;;;10.30;99.90;;;;;;4912060;29;20158;-87
2022/11/04 05:47:49;;;;;;;1.65;0.30;;;10.10;99.90;;;;;;4886083;29;20140;-87
2022/11/04 05:51:05;;;;;;;1.65;0.30;;;10.10;99.90;;;;;;4863659;29;20052;-87
2022/11/04 05:54:58;;;;;;;1.17;0.43;;;10.10;99.90;;;;;;4870864;29;20609;-89
2022/11/04 06:19:56;;;;;;;2.22;0.47;;;9.20;99.90;;;;;;4832859;29;21160;-87
2022/11/04 06:22:35;;;;;;;1.52;0.20;;;9.40;99.90;;;;;;4832689;29;20466;-87
2022/11/04 06:25:27;;;;;;;0.90;0.00;;;9.40;99.90;;;;;;4801623;29;20506;-86
2022/11/04 06:28:12;;;;;;;4.22;0.30;;;9.40;99.90;;;;;;4768085;29;20051;-86
2022/11/04 06:34:04;;;;;;;0.55;0.20;;;9.30;99.90;;;;;;4811784;29;20064;-86
2022/11/04 06:36:30;;;;;;;1.95;0.10;;;9.20;99.90;;;;;;4803159;29;20046;-86
2022/11/04 06:39:04;;;;;;;1.88;0.30;;;9.30;99.90;;;;;;4833160;29;20055;-86
2022/11/04 06:41:30;;;;;;;3.85;0.28;;;9.30;99.90;;;;;;4873857;29;20044;-87
2022/11/04 06:44:03;;;;;;;1.70;0.28;;;9.30;99.90;;;;;;4875450;29;20041;-86
2022/11/04 06:46:40;;;;;;;1.20;0.30;;;9.20;99.90;;;;;;4875916;29;20485;-85
2022/11/04 06:49:16;;;;;;;1.25;0.20;;;9.20;99.90;;;;;;4858323;29;20388;-83
2022/11/04 06:51:46;;;;;;;3.58;0.30;;;9.20;99.90;;;;;;4898324;29;20047;-84
2022/11/04 06:54:18;;;;;;;1.35;0.20;;;9.20;99.90;;;;;;4881379;29;20420;-85
2022/11/04 06:56:51;;;;;;;0.40;0.10;;;9.20;99.90;;;;;;4864825;29;20391;-84
2022/11/04 06:59:19;;;;;;;0.63;0.10;;;9.10;99.90;;;;;;4875448;29;20041;-85
2022/11/04 07:01:45;;;;;;;1.45;0.22;;;9.70;99.90;;;;;;4857612;29;20040;-83
2022/11/04 07:04:22;;;;;;;1.27;0.10;;;9.30;99.90;;;;;;4859139;29;20404;-85
2022/11/04 07:06:48;;;;;;;1.10;0.10;;;9.30;99.90;;;;;;4862591;29;20076;-83
2022/11/04 07:09:14;;;;;;;0.98;0.20;;;9.30;99.90;;;;;;4858336;29;20136;-83
2022/11/04 07:11:41;;;;;;;3.42;0.13;;;9.30;99.90;;;;;;4860874;29;20052;-83
2022/11/04 07:14:08;;;;;;;2.25;0.55;;;9.40;99.90;;;;;;4874728;29;20606;-83
2022/11/04 07:16:33;;;;;;;1.45;0.10;;;9.50;99.90;;;;;;4856973;29;20052;-83
2022/11/04 07:18:59;;;;;;;0.77;0.30;;;9.60;99.90;;;;;;4846160;29;21276;-83
2022/11/04 07:21:25;;;;;;;0.52;0.10;;;9.60;99.90;;;;;;4848181;29;20680;-83
2022/11/04 07:23:51;;;;;;;1.92;0.10;;;9.60;99.90;;;;;;4848808;29;20044;-84
2022/11/04 07:26:16;;;;;;;3.42;0.20;;;9.60;99.90;;;;;;4871474;29;20552;-84
2022/11/04 07:28:42;;;;;;;2.00;0.20;;;9.50;99.90;;;;;;4861175;29;20036;-84
2022/11/04 07:31:11;;;;;;;1.85;0.30;;;9.50;99.90;;;;;;4865921;29;20045;-84
2022/11/04 07:34:10;;;;;;;;;;;;;;;;;;;;;
2022/11/04 07:36:55;;;;;;;1.20;0.25;;;9.60;99.90;;;;;;4881867;29;20052;-85
2022/11/04 07:39:20;;;;;;;2.33;0.30;;;9.40;99.90;;;;;;4875949;29;20044;-87
2022/11/04 07:41:50;;;;;;;2.97;0.30;;;9.70;99.90;;;;;;4865722;29;20523;-84
2022/11/04 07:44:35;;;;;;;4.53;0.40;;;10.40;99.90;;;;;;4865214;29;20041;-85
2022/11/04 07:49:59;;;;;;;2.67;0.40;;;9.60;99.90;;;;;;4841262;29;20547;-84
2022/11/04 07:52:27;;;;;;;1.42;0.35;;;9.50;99.90;;;;;;4864556;29;20040;-84
2022/11/04 07:54:56;;;;;;;1.85;0.30;;;9.50;99.90;;;;;;4847952;29;20075;-84
2022/11/04 07:58:14;;;;;;;3.25;0.40;;;9.00;99.90;;;;;;4884053;29;20460;-83
2022/11/04 08:01:02;;;;;;;2.33;0.20;;;9.60;99.90;;;;;;4851641;29;20104;-84
2022/11/04 08:04:28;;;;;;;4.05;0.40;;;9.60;99.90;;;;;;4864849;29;20052;-82
2022/11/04 08:07:13;;;;;;;2.67;0.30;;;9.60;99.90;;;;;;4897352;23;20060;-82
2022/11/04 08:12:42;;;;;;;3.45;0.45;;;9.70;99.90;;;;;;4863756;29;20056;-84
2022/11/04 08:15:08;;;;;;;1.02;0.30;;;10.10;99.90;;;;;;4867121;29;20055;-85
2022/11/04 08:17:40;;;;;;;1.67;0.40;;;9.90;99.90;;;;;;4865022;29;20488;-85
2022/11/04 08:20:12;;;;;;;2.95;0.22;;;9.90;99.90;;;;;;4879599;29;20127;-81
2022/11/04 08:22:44;;;;;;;1.95;0.43;;;10.10;99.90;;;;;;4852052;29;20028;-86
2022/11/04 08:25:20;;;;;;;3.53;0.52;;;10.20;99.90;;;;;;4863669;29;20052;-85
2022/11/04 08:27:57;;;;;;;2.83;0.70;;;10.30;99.90;;;;;;4851764;29;20051;-87
2022/11/04 08:31:01;;;;;;;5.03;0.30;;;10.30;99.90;;;;;;4850722;29;20064;-86
2022/11/04 08:33:28;;;;;;;1.13;0.22;;;10.20;99.90;;;;;;4883038;29;20059;-84
2022/11/04 08:35:57;;;;;;;1.77;0.60;;;10.50;99.90;;;;;;4850284;29;21882;-84
2022/11/04 08:38:25;;;;;;;1.88;0.20;;;10.60;99.90;;;;;;4865725;29;20508;-84
2022/11/04 08:41:03;;;;;;;2.15;0.40;;;10.70;99.90;;;;;;4864689;29;20044;-84
2022/11/04 08:43:41;;;;;;;3.47;0.82;;;10.70;99.90;;;;;;4845976;29;20101;-84
2022/11/04 08:46:18;;;;;;;1.83;0.30;;;10.70;99.90;;;;;;4851130;29;20052;-84
2022/11/04 08:48:56;;;;;;;2.20;0.82;;;11.00;99.90;;;;;;4851043;29;20952;-85
2022/11/04 08:51:36;;;;;;;2.15;0.40;;;10.70;99.90;;;;;;4849434;29;20133;-85
2022/11/04 08:54:11;;;;;;;2.92;0.40;;;11.50;99.90;;;;;;4847386;29;20488;-85
2022/11/04 08:56:45;;;;;;;1.73;0.52;;;11.00;99.90;;;;;;4863703;29;20419;-84
2022/11/04 08:59:19;;;;;;;3.28;0.30;;;11.00;99.90;;;;;;4882085;29;20059;-84
2022/11/04 09:02:27;;;;;;;4.72;1.02;;;11.10;99.90;;;;;;4871783;29;20052;-85
2022/11/04 09:05:25;;;;;;;;;;;;;;;;;;;;;
2022/11/04 09:13:06;;;;;;;;;;;;;;;;;;;;;
2022/11/04 09:16:12;;;;;;;2.45;0.45;;;11.20;99.90;;;;;;4785333;29;21003;-85
2022/11/04 09:19:06;;;;;;;2.17;0.52;;;11.40;99.90;;;;;;4817666;29;20148;-85
2022/11/04 09:26:51;;;;;;;;;;;;;;;;;;;;;
2022/11/04 09:33:50;;;;;;;5.50;1.20;;;11.50;99.90;;;;;;4876159;29;20472;-85
2022/11/04 09:48:38;;;;;;;;;;;;;;;;;;;;;
2022/11/04 10:34:32;;;;;;;5.88;3.38;;;12.10;99.90;;;;;;4894179;29;20442;-84
2022/11/04 10:40:56;;;;;;;7.20;3.80;;;12.00;99.90;;;;;;4863000;29;20044;-84
2022/11/04 10:43:53;;;;;;;4.88;4.35;;;12.20;99.90;;;;;;4844465;29;20096;-84
2022/11/04 10:47:22;;;;;;;5.95;4.18;;;12.40;99.90;;;;;;4861323;29;20053;-84
2022/11/04 10:50:45;;;;;;;4.82;3.80;;;12.70;99.90;;;;;;4839630;29;20041;-85
2022/11/04 12:49:19;;;;;;;4.90;0.40;;;11.50;99.90;;;;;;4893729;29;20044;-84
2022/11/04 12:52:12;;;;;;;;;;;11.40;99.90;;;;;;4873720;29;20086;-84
2022/11/04 12:55:18;;;;;;;5.57;0.70;;;11.20;99.90;;;;;;4878692;29;19927;-84
2022/11/04 12:58:17;;;;;;;4.78;0.57;;;11.20;99.90;;;;;;4878200;29;20054;-84
2022/11/04 13:00:53;;;;;;;4.72;0.60;;;11.00;99.90;;;;;;4863262;29;20039;-84
2022/11/04 13:04:00;;;;;;;8.60;0.75;;;11.10;99.90;;;;;;4891545;29;20048;-83
2022/11/04 13:07:20;;;;;;;3.15;0.50;;;11.00;99.90;;;;;;4794777;29;20083;-84
2022/11/04 13:10:43;;;;;;;2.72;0.40;;;10.90;99.90;;;;;;4824666;29;20056;-83
2022/11/04 13:13:15;;;;;;;3.05;0.80;;;10.90;99.90;;;;;;4864472;29;20575;-84
2022/11/04 13:16:39;;;;;;;9.43;1.42;;;11.50;99.90;;;;;;4877715;29;20664;-84
2022/11/04 13:19:12;;;;;;;11.07;1.17;;;11.20;99.90;;;;;;4861626;29;20172;-85
2022/11/04 13:21:38;;;;;;;4.88;0.47;;;11.30;99.90;;;;;;4880674;29;20514;-84
2022/11/04 13:24:51;;;;;;;3.75;0.88;;;11.40;99.90;;;;;;4861942;29;20087;-84
2022/11/04 13:27:58;;;;;;;3.58;0.40;;;11.40;99.90;;;;;;4889687;29;20082;-84
2022/11/04 13:30:46;;;;;;;3.33;0.55;;;11.50;99.90;;;;;;4862723;29;20751;-84
2022/11/04 13:33:26;;;;;;;2.88;0.98;;;11.40;99.90;;;;;;4882191;29;20054;-84
2022/11/04 13:36:36;;;;;;;3.72;0.40;;;11.40;99.90;;;;;;4882420;29;20096;-85
2022/11/04 13:40:39;;;;;;;3.92;0.60;;;11.40;99.90;;;;;;4842322;29;20449;-85
2022/11/04 13:43:45;;;;;;;3.92;0.52;;;11.30;99.90;;;;;;4828473;29;20057;-84
2022/11/04 13:46:38;;;;;;;4.85;0.52;;;11.30;99.90;;;;;;4872517;29;20086;-85
2022/11/04 13:49:59;;;;;;;3.60;0.55;;;11.30;99.90;;;;;;4881346;29;20128;-85
2022/11/04 13:52:54;;;;;;;3.08;0.50;;;11.40;99.90;;;;;;4877210;29;20052;-85
2022/11/04 13:55:21;;;;;;;3.78;0.50;;;11.40;99.90;;;;;;4897759;29;20070;-85
2022/11/04 13:58:29;;;;;;;3.08;0.40;;;11.90;99.90;;;;;;4878100;29;20078;-85
2022/11/04 14:01:47;;;;;;;3.50;0.40;;;11.30;99.90;;;;;;4905994;29;20048;-85
2022/11/04 14:04:31;;;;;;;3.97;1.02;;;11.30;99.90;;;;;;4888781;29;20040;-84
2022/11/04 14:07:53;;;;;;;4.10;0.55;;;11.20;99.90;;;;;;4880377;29;20634;-84
2022/11/04 14:10:53;;;;;;;5.50;0.65;;;11.20;99.90;;;;;;4873727;29;20063;-85
2022/11/04 14:17:40;;;;;;;8.50;0.55;;;11.00;99.90;;;;;;4908542;29;20063;-84
2022/11/04 14:20:28;;;;;;;9.13;1.20;;;11.00;99.90;;;;;;4887770;29;20055;-85
2022/11/04 14:23:21;;;;;;;5.38;0.60;;;10.90;99.90;;;;;;4874486;29;20522;-85
2022/11/04 14:26:02;;;;;;;7.03;0.90;;;10.90;99.90;;;;;;4877740;29;20053;-85
2022/11/04 14:28:30;;;;;;;6.50;0.70;;;10.90;99.90;;;;;;4909513;29;20040;-85
2022/11/04 14:31:10;;;;;;;5.78;0.70;;;10.80;99.90;;;;;;4891364;29;20111;-85
2022/11/04 14:33:53;;;;;;;4.15;0.77;;;10.80;99.90;;;;;;4909987;29;20048;-85
2022/11/04 14:36:19;;;;;;;7.40;1.25;;;10.80;99.90;;;;;;4909900;29;20055;-85
2022/11/04 14:39:03;;;;;;;5.88;0.43;;;10.90;99.90;;;;;;4906722;29;20043;-85
2022/11/04 14:41:40;;;;;;;5.90;0.65;;;10.80;99.90;;;;;;4891006;29;20043;-85
2022/11/04 14:44:14;;;;;;;5.00;0.57;;;10.80;99.90;;;;;;4907835;29;20048;-85
2022/11/04 14:46:46;;;;;;;6.70;1.20;;;10.80;99.90;;;;;;4887899;29;20056;-85
2022/11/04 14:49:47;;;;;;;5.85;0.60;;;10.80;99.90;;;;;;4875861;29;20040;-85
2022/11/04 14:52:31;;;;;;;5.72;0.60;;;10.40;99.90;;;;;;4908739;29;20523;-85
2022/11/04 14:55:06;;;;;;;4.40;0.70;;;11.60;99.90;;;;;;4891533;29;20056;-85
2022/11/04 14:57:41;;;;;;;5.57;0.60;;;10.70;99.90;;;;;;4896755;29;20052;-85
2022/11/04 15:00:26;;;;;;;7.68;0.90;;;10.60;99.90;;;;;;4874439;29;20047;-85
2022/11/04 15:02:59;;;;;;;11.02;0.77;;;10.70;99.90;;;;;;4890733;29;20056;-86
2022/11/04 15:05:34;;;;;;;6.80;0.77;;;10.50;99.90;;;;;;4874861;29;20160;-85
2022/11/04 15:08:02;;;;;;;9.18;0.90;;;10.70;99.90;;;;;;4887396;29;20072;-85
2022/11/04 15:10:28;;;;;;;8.15;0.75;;;10.70;99.90;;;;;;4888940;29;20068;-85
2022/11/04 15:13:00;;;;;;;3.25;0.43;;;10.70;99.90;;;;;;4890506;29;20079;-85
2022/11/04 15:15:40;;;;;;;11.95;1.02;;;10.70;99.90;;;;;;4908817;29;20096;-85
2022/11/04 15:18:19;;;;;;;9.77;1.45;;;10.60;99.90;;;;;;4907489;29;20135;-85
2022/11/04 15:20:51;;;;;;;9.10;0.85;;;10.60;99.90;;;;;;4879384;29;20047;-85
2022/11/04 15:23:22;;;;;;;5.55;0.50;;;10.60;99.90;;;;;;4887993;29;20032;-85
2022/11/04 15:25:50;;;;;;;5.72;0.70;;;10.90;99.90;;;;;;4905984;29;20044;-85
2022/11/04 15:28:23;;;;;;;4.80;0.40;;;10.50;99.90;;;;;;4908547;29;20131;-85
2022/11/04 15:31:05;;;;;;;7.03;1.13;;;10.70;99.90;;;;;;4910034;29;20043;-85
2022/11/04 15:33:39;;;;;;;3.03;0.70;;;10.40;99.90;;;;;;4891773;29;20111;-85
2022/11/04 15:36:10;;;;;;;6.80;0.88;;;10.70;99.90;;;;;;4890875;29;20043;-85
2022/11/04 15:38:41;;;;;;;8.63;0.98;;;10.30;99.90;;;;;;4905532;29;20155;-85
2022/11/04 15:43:52;;;;;;;7.93;1.27;;;10.30;99.90;;;;;;4892219;29;20044;-85
2022/11/04 15:46:19;;;;;;;6.80;0.65;;;10.80;99.90;;;;;;4880708;29;20071;-85
2022/11/04 15:49:04;;;;;;;6.65;1.10;;;10.50;99.90;;;;;;4873759;29;20067;-85
2022/11/04 15:51:35;;;;;;;5.38;1.20;;;10.30;99.90;;;;;;4896396;29;20100;-85
2022/11/04 15:54:15;;;;;;;7.53;0.77;;;10.30;99.90;;;;;;4888792;29;20054;-85
2022/11/04 15:56:48;;;;;;;5.07;0.80;;;10.20;99.90;;;;;;4888314;29;20051;-85
2022/11/04 15:59:18;;;;;;;5.25;0.95;;;10.20;99.90;;;;;;4890786;29;20051;-85
2022/11/04 16:06:55;;;;;;;6.22;0.90;;;10.10;99.90;;;;;;4852616;29;20574;-86
2022/11/04 16:09:52;;;;;;;7.00;1.08;;;10.10;99.90;;;;;;4814756;29;20182;-86
2022/11/04 16:20:29;;;;;;;4.72;1.33;;;10.00;99.90;;;;;;4834561;29;20067;-86
2022/11/04 16:23:47;;;;;;;8.20;1.95;;;10.00;99.90;;;;;;4835445;29;20126;-87
2022/11/04 16:26:36;;;;;;;5.65;0.90;;;9.90;99.90;;;;;;4831842;29;20091;-86
2022/11/04 16:29:17;;;;;;;7.00;1.17;;;10.60;99.90;;;;;;4893374;29;20037;-86
2022/11/04 16:32:22;;;;;;;5.20;0.85;;;9.90;99.90;;;;;;4897160;29;20503;-88
2022/11/04 16:34:58;;;;;;;6.82;0.88;;;9.50;99.90;;;;;;4901524;29;20063;-85
2022/11/04 16:41:37;;;;;;;2.50;0.60;;;9.60;99.90;;;;;;4909365;29;20046;-85
2022/11/04 16:45:08;;;;;;;4.38;0.88;;;9.60;99.90;;;;;;4867338;29;20057;-85
2022/11/04 17:01:20;;;;;;;5.22;0.98;;;9.80;99.90;;;;;;4850722;29;20048;-84
2022/11/04 17:04:03;;;;;;;6.35;0.80;;;9.30;99.90;;;;;;4839783;29;20056;-85
2022/11/04 17:06:29;;;;;;;7.63;1.00;;;9.30;99.90;;;;;;4864442;29;20083;-84
2022/11/04 17:08:54;;;;;;;10.35;1.33;;;9.20;99.90;;;;;;4880486;29;20051;-84
2022/11/04 17:19:56;;;;;;;7.32;0.90;;;9.20;99.90;;;;;;4797637;29;20414;-84
2022/11/04 17:30:23;;;;;;;7.00;0.93;;;9.10;99.90;;;;;;4777280;29;20165;-83
2022/11/04 17:32:49;;;;;;;4.22;1.10;;;9.00;99.90;;;;;;4755349;30;20067;-85
2022/11/04 17:35:18;;;;;;;8.07;1.40;;;9.10;99.90;;;;;;4760055;29;20069;-85
2022/11/04 17:37:44;;;;;;;5.18;1.25;;;9.00;99.90;;;;;;4830499;29;20508;-83
2022/11/04 17:58:02;;;;;;;6.53;0.60;;;9.00;99.90;;;;;;4878200;29;20055;-83
2022/11/04 18:01:19;;;;;;;7.40;1.02;;;8.80;99.90;;;;;;4861455;29;20093;-83
2022/11/04 18:04:06;;;;;;;6.75;0.70;;;8.60;99.90;;;;;;4865583;29;20506;-83
2022/11/04 18:06:57;;;;;;;10.45;1.15;;;8.60;99.90;;;;;;4850682;29;20048;-83
2022/11/04 18:09:49;;;;;;;5.85;0.68;;;8.50;99.90;;;;;;4822834;29;20057;-83
2022/11/04 18:23:43;;;;;;;8.07;1.20;;;8.40;99.90;;;;;;4907479;29;20055;-83
2022/11/04 18:26:10;;;;;;;4.57;0.75;;;8.30;99.90;;;;;;4875995;29;20040;-83
2022/11/04 18:28:39;;;;;;;5.60;0.70;;;8.40;99.90;;;;;;4889701;29;20040;-83
2022/11/04 18:31:53;;;;;;;6.13;0.90;;;8.90;99.90;;;;;;4880449;29;20433;-84
2022/11/04 18:34:25;;;;;;;6.43;0.85;;;8.00;99.90;;;;;;4815819;29;20064;-83
2022/11/04 18:36:50;;;;;;;7.97;0.80;;;8.30;99.90;;;;;;4865394;29;20891;-84
2022/11/04 18:39:17;;;;;;;5.70;0.93;;;8.20;99.90;;;;;;4875822;29;20048;-83
2022/11/04 18:41:46;;;;;;;4.47;0.95;;;8.50;99.90;;;;;;4880799;29;20040;-83
2022/11/04 18:44:25;;;;;;;4.53;0.90;;;8.60;99.90;;;;;;4891475;29;20120;-83
2022/11/04 18:46:56;;;;;;;7.97;1.05;;;8.50;99.90;;;;;;4877456;29;20047;-83
2022/11/04 18:49:22;;;;;;;5.32;1.33;;;8.20;99.90;;;;;;4877275;29;20036;-83
2022/11/04 18:51:59;;;;;;;5.35;1.13;;;9.10;99.90;;;;;;4905895;29;20059;-83
2022/11/04 18:54:36;;;;;;;10.35;1.50;;;8.10;99.90;;;;;;4880086;29;20499;-83
2022/11/04 19:01:35;;;;;;;9.13;1.25;;;7.70;99.90;;;;;;4864083;29;20075;-86
2022/11/04 19:04:52;;;;;;;;;;;;;;;;;;;;;
2022/11/04 19:08:24;;;;;;;6.88;1.38;;;8.30;99.90;;;;;;4773838;29;20497;-87
2022/11/04 19:10:52;;;;;;;12.43;1.25;;;8.00;99.90;;;;;;4736493;29;20507;-85
2022/11/04 19:13:37;;;;;;;7.30;1.45;;;8.00;99.90;;;;;;4795427;29;20156;-85
2022/11/04 19:16:27;;;;;;;11.98;1.30;;;8.00;99.90;;;;;;4768474;29;20051;-86
2022/11/04 19:19:06;;;;;;;10.13;1.23;;;8.00;99.90;;;;;;4790907;29;20181;-85
2022/11/04 19:21:54;;;;;;;13.15;2.00;;;8.00;99.90;;;;;;4819691;29;20062;-86
2022/11/04 19:46:03;;;;;;;6.20;1.60;;;7.90;99.90;;;;;;4871259;29;20045;-85
2022/11/04 19:48:29;;;;;;;16.35;1.60;;;7.90;99.90;;;;;;4858808;29;20033;-85
2022/11/04 19:50:55;;;;;;;10.80;1.77;;;7.90;99.90;;;;;;4862070;29;20056;-84
2022/11/04 19:53:21;;;;;;;9.10;1.30;;;7.90;99.90;;;;;;4868920;29;20057;-85
2022/11/04 19:55:51;;;;;;;5.93;1.58;;;7.90;99.90;;;;;;4861148;29;20037;-84
2022/11/04 19:58:17;;;;;;;8.52;1.67;;;7.90;99.90;;;;;;4850999;29;20037;-84
2022/11/04 20:00:44;;;;;;;16.30;2.42;;;7.90;99.90;;;;;;4846256;29;20052;-85
2022/11/04 20:03:10;;;;;;;11.90;1.98;;;7.90;99.90;;;;;;4868978;29;20045;-84
2022/11/04 20:05:40;;;;;;;13.10;1.98;;;7.80;99.90;;;;;;4854600;29;20044;-85